Time;durP1;ratioP1;P1;durP2;ratioP2;P2;SDS_P1;SDS_P2;PMS_P1;PMS_P2;Temp;Humidity;BMP_temperature;BMP_pressure;BME280_temperature;BME280_humidity;BME280_pressure;Samples;Min_cycle;Max_cycle;Signal;HPM_P1;HPM_P2
2022/08/10 00:01:15;;;;;;;3.37;3.07;;;;;;;20.99;44.04;99897.50;4967175;28;20677;-79
2022/08/10 00:03:40;;;;;;;3.00;2.70;;;;;;;20.87;44.59;99890.75;4967259;28;20223;-79
2022/08/10 00:06:06;;;;;;;2.63;2.37;;;;;;;20.80;44.60;99897.72;4967977;28;20196;-78
2022/08/10 00:08:31;;;;;;;3.10;2.80;;;;;;;20.73;44.94;99902.00;4949642;28;20212;-79
2022/08/10 00:10:57;;;;;;;3.73;3.43;;;;;;;20.71;44.96;99896.84;4967532;28;20235;-78
2022/08/10 00:13:24;;;;;;;3.17;2.87;;;;;;;20.73;44.80;99896.66;4968328;28;20698;-79
2022/08/10 00:15:51;;;;;;;3.20;2.90;;;;;;;20.74;44.71;99898.34;4968184;28;20319;-78
2022/08/10 00:18:16;;;;;;;3.07;2.40;;;;;;;20.69;44.66;99893.47;4967239;28;20521;-79
2022/08/10 00:20:42;;;;;;;2.80;2.60;;;;;;;20.62;44.81;99894.25;4966261;28;20467;-79
2022/08/10 00:23:07;;;;;;;4.23;2.70;;;;;;;20.59;44.88;99902.56;4967737;28;20444;-79
2022/08/10 00:25:32;;;;;;;2.53;2.33;;;;;;;20.54;44.81;99895.03;4967046;28;20672;-79
2022/08/10 00:27:58;;;;;;;2.87;2.67;;;;;;;20.53;44.73;99902.19;4967508;28;20248;-79
2022/08/10 00:30:23;;;;;;;2.77;2.50;;;;;;;20.51;44.66;99904.13;4966311;28;20210;-79
2022/08/10 00:32:49;;;;;;;3.33;3.13;;;;;;;20.53;44.67;99893.31;4967679;28;20287;-79
2022/08/10 00:35:14;;;;;;;3.40;2.93;;;;;;;20.54;44.72;99903.03;4965279;28;20226;-80
2022/08/10 00:37:39;;;;;;;3.00;2.63;;;;;;;20.54;44.92;99903.84;4964494;28;20236;-79
2022/08/10 00:40:05;;;;;;;2.93;2.73;;;;;;;20.50;45.11;99905.13;4966031;28;20208;-79
2022/08/10 00:42:31;;;;;;;3.87;2.47;;;;;;;20.50;45.25;99904.31;4965850;28;20214;-79
2022/08/10 00:44:56;;;;;;;2.77;2.53;;;;;;;20.45;45.67;99909.25;4967283;28;20497;-79
2022/08/10 00:47:23;;;;;;;2.67;2.47;;;;;;;20.42;45.51;99905.06;4967172;28;20213;-79
2022/08/10 00:49:49;;;;;;;3.00;2.80;;;;;;;20.39;45.79;99908.06;4966954;28;20213;-79
2022/08/10 00:52:16;;;;;;;4.20;2.63;;;;;;;20.41;45.91;99899.88;4966683;28;20488;-79
2022/08/10 00:54:42;;;;;;;2.93;2.57;;;;;;;20.37;45.77;99899.34;4967532;28;20477;-80
2022/08/10 00:57:12;;;;;;;3.47;3.17;;;;;;;20.33;45.75;99900.63;4967106;28;20515;-79
2022/08/10 00:59:37;;;;;;;3.00;2.37;;;;;;;20.33;45.87;99895.31;4967085;28;20466;-80
2022/08/10 01:02:03;;;;;;;2.53;2.33;;;;;;;20.33;45.71;99901.50;4967316;28;20941;-79
2022/08/10 01:04:29;;;;;;;3.63;2.67;;;;;;;20.31;45.77;99895.47;4967803;28;20286;-80
2022/08/10 01:07:10;;;;;;;3.00;2.80;;;;;;;20.29;46.19;99900.13;4968231;28;20208;-79
2022/08/10 01:09:58;;;;;;;2.90;2.70;;;;;;;20.29;45.90;99900.13;4966310;28;20208;-79
2022/08/10 01:12:42;;;;;;;2.93;2.67;;;;;;;20.29;45.93;99893.94;4968558;28;20619;-80
2022/08/10 01:15:11;;;;;;;3.30;3.00;;;;;;;20.24;46.30;99902.41;4968273;28;20510;-79
2022/08/10 01:18:02;;;;;;;3.77;3.17;;;;;;;20.21;46.63;99896.53;4966981;28;20553;-79
2022/08/10 01:20:52;;;;;;;3.30;3.00;;;;;;;20.14;46.88;99901.63;4966678;28;20586;-80
2022/08/10 01:23:41;;;;;;;4.50;3.23;;;;;;;20.09;46.85;99894.09;4971317;28;20456;-79
2022/08/10 01:26:28;;;;;;;3.50;2.70;;;;;;;20.01;47.24;99896.69;4971892;28;20447;-79
2022/08/10 01:28:53;;;;;;;2.97;2.70;;;;;;;19.85;47.84;99889.38;4969948;28;20497;-80
2022/08/10 01:31:22;;;;;;;3.13;2.93;;;;;;;19.75;48.10;99896.56;4968813;28;20474;-79
2022/08/10 01:34:00;;;;;;;3.57;3.27;;;;;;;19.57;48.95;99893.00;4967726;28;20742;-79
2022/08/10 01:36:38;;;;;;;3.50;3.20;;;;;;;19.45;49.02;99900.34;4969054;28;20494;-79
2022/08/10 01:39:06;;;;;;;3.47;3.17;;;;;;;19.41;48.75;99904.28;4969234;28;20484;-80
2022/08/10 01:41:42;;;;;;;2.93;2.70;;;;;;;19.40;49.24;99891.97;4969837;28;20456;-80
2022/08/10 01:44:17;;;;;;;4.07;3.30;;;;;;;19.39;49.17;99895.63;4970817;28;20489;-79
2022/08/10 01:46:47;;;;;;;3.57;3.27;;;;;;;19.38;49.23;99891.28;4970493;28;21013;-80
2022/08/10 01:49:15;;;;;;;6.00;3.10;;;;;;;19.34;49.21;99897.88;4968383;28;20482;-79
2022/08/10 01:51:44;;;;;;;3.30;3.10;;;;;;;19.32;49.47;99899.84;4969445;28;20479;-79
2022/08/10 01:54:18;;;;;;;3.03;2.80;;;;;;;19.29;49.80;99894.81;4969748;28;20481;-79
2022/08/10 01:56:47;;;;;;;3.00;2.77;;;;;;;19.29;49.80;99893.00;4969997;28;20492;-80
2022/08/10 01:59:18;;;;;;;2.70;2.47;;;;;;;19.24;49.58;99893.44;4968617;28;20968;-79
2022/08/10 02:01:50;;;;;;;4.80;3.20;;;;;;;19.23;50.02;99897.09;4969112;28;20467;-79
2022/08/10 02:04:18;;;;;;;3.40;3.10;;;;;;;19.27;49.88;99892.28;4970227;28;20888;-79
2022/08/10 02:06:49;;;;;;;4.23;3.87;;;;;;;19.28;49.97;99898.47;4969844;28;20830;-79
2022/08/10 02:09:25;;;;;;;3.37;3.17;;;;;;;19.19;50.16;99900.19;4969268;28;20461;-80
2022/08/10 02:11:53;;;;;;;3.00;2.80;;;;;;;19.05;50.60;99892.66;4968768;28;20428;-79
2022/08/10 02:14:20;;;;;;;3.30;3.00;;;;;;;18.89;50.91;99902.09;4968921;28;20994;-80
2022/08/10 02:16:49;;;;;;;4.67;4.00;;;;;;;18.73;51.04;99905.31;4969329;28;20499;-79
2022/08/10 02:19:18;;;;;;;4.00;3.60;;;;;;;18.56;51.57;99904.22;4968566;28;20496;-79
2022/08/10 02:21:46;;;;;;;3.90;3.60;;;;;;;18.42;52.10;99904.66;4967928;28;20450;-78
2022/08/10 02:24:14;;;;;;;3.07;2.87;;;;;;;18.32;52.22;99903.81;4966446;28;20461;-79
2022/08/10 02:26:42;;;;;;;3.93;3.63;;;;;;;18.22;52.47;99908.28;4969756;28;21074;-79
2022/08/10 02:29:09;;;;;;;3.17;2.87;;;;;;;18.14;52.73;99908.97;4967454;28;20426;-79
2022/08/10 02:31:36;;;;;;;3.10;2.80;;;;;;;18.10;52.78;99912.91;4969650;28;20624;-80
2022/08/10 02:34:02;;;;;;;3.03;2.83;;;;;;;18.13;52.92;99913.47;4966685;28;20495;-80
2022/08/10 02:36:31;;;;;;;5.43;3.33;;;;;;;18.12;52.76;99913.63;4972629;28;20977;-79
2022/08/10 02:39:00;;;;;;;4.20;2.70;;;;;;;18.09;52.73;99909.41;4965018;28;20404;-79
2022/08/10 02:41:47;;;;;;;3.57;3.30;;;;;;;18.13;52.92;99902.00;4968730;28;20594;-79
2022/08/10 02:44:20;;;;;;;4.03;3.20;;;;;;;18.16;52.73;99906.19;4961700;28;21140;-79
2022/08/10 02:46:49;;;;;;;3.87;3.50;;;;;;;18.22;52.51;99901.13;4949173;28;20452;-79
2022/08/10 02:49:25;;;;;;;3.80;3.50;;;;;;;18.29;52.25;99912.91;4929745;28;20500;-80
2022/08/10 02:52:00;;;;;;;3.60;3.13;;;;;;;18.28;52.37;99908.59;4949493;28;20889;-79
2022/08/10 02:54:31;;;;;;;3.50;3.30;;;;;;;18.30;52.12;99905.75;4948598;28;20896;-79
2022/08/10 02:57:13;;;;;;;3.90;3.60;;;;;;;18.31;52.16;99905.63;4949723;28;20489;-79
2022/08/10 02:59:49;;;;;;;5.30;4.90;;;;;;;18.37;51.88;99906.06;4949537;28;20555;-78
2022/08/10 03:02:29;;;;;;;5.67;4.90;;;;;;;18.43;51.34;99902.84;4948711;28;21045;-79
2022/08/10 03:05:00;;;;;;;5.70;4.87;;;;;;;18.50;51.45;99898.63;4950003;28;20571;-79
2022/08/10 03:07:38;;;;;;;6.60;5.70;;;;;;;18.56;51.07;99898.06;4949119;28;20441;-79
2022/08/10 03:10:06;;;;;;;9.60;7.10;;;;;;;18.58;50.76;99901.44;4952109;28;20530;-79
2022/08/10 03:12:34;;;;;;;8.50;6.20;;;;;;;18.60;50.89;99898.59;4950685;28;20552;-79
2022/08/10 03:15:01;;;;;;;9.87;6.70;;;;;;;18.57;50.90;99897.91;4950371;28;20500;-79
2022/08/10 03:17:28;;;;;;;10.87;6.83;;;;;;;18.52;50.65;99901.97;4948584;28;20544;-79
2022/08/10 03:19:56;;;;;;;8.23;7.33;;;;;;;18.47;50.95;99894.44;4948247;28;20470;-79
2022/08/10 03:22:23;;;;;;;8.90;7.23;;;;;;;18.42;50.90;99887.88;4949086;28;20518;-79
2022/08/10 03:24:50;;;;;;;6.33;5.73;;;;;;;18.36;51.23;99902.53;4947424;28;20528;-79
2022/08/10 03:27:16;;;;;;;8.67;6.63;;;;;;;18.33;50.99;99901.03;4949086;28;20461;-79
2022/08/10 03:29:42;;;;;;;9.03;7.00;;;;;;;18.31;51.22;99902.97;4948379;28;20458;-76
2022/08/10 03:32:10;;;;;;;9.47;6.60;;;;;;;18.32;50.97;99911.78;4947693;28;20453;-76
2022/08/10 03:34:37;;;;;;;8.75;6.90;;;;;;;18.29;50.90;99902.28;4606889;28;10000573;-76
2022/08/10 03:37:03;;;;;;;7.43;6.20;;;;;;;18.28;51.07;99902.41;4945523;28;20575;-76
2022/08/10 03:39:29;;;;;;;9.77;5.57;;;;;;;18.28;51.09;99900.59;4948651;28;20488;-76
2022/08/10 03:41:59;;;;;;;6.93;5.73;;;;;;;18.32;50.88;99899.34;4948194;28;20724;-76
2022/08/10 03:44:28;;;;;;;6.00;5.40;;;;;;;18.35;50.80;99904.38;4956536;28;20311;-76
2022/08/10 03:46:56;;;;;;;8.87;4.93;;;;;;;18.44;50.34;99894.69;4967204;28;20465;-76
2022/08/10 03:49:22;;;;;;;4.60;4.03;;;;;;;18.51;50.22;99901.13;4967378;28;20507;-76
2022/08/10 03:51:50;;;;;;;4.37;3.47;;;;;;;18.58;49.92;99904.09;4966858;28;20456;-77
2022/08/10 03:54:16;;;;;;;5.67;4.17;;;;;;;18.60;49.88;99904.75;4967524;28;20484;-76
2022/08/10 03:56:42;;;;;;;6.37;3.40;;;;;;;18.62;49.86;99905.47;4967449;28;20513;-76
2022/08/10 03:59:11;;;;;;;4.27;3.97;;;;;;;18.64;49.78;99906.19;4965066;28;20468;-76
2022/08/10 04:01:37;;;;;;;5.03;4.50;;;;;;;18.66;49.95;99903.34;4967823;28;20399;-77
2022/08/10 04:04:03;;;;;;;4.23;3.87;;;;;;;18.66;49.78;99903.34;4967605;28;20605;-76
2022/08/10 04:06:29;;;;;;;4.90;4.07;;;;;;;18.68;49.87;99912.03;4968116;28;20222;-77
2022/08/10 04:08:54;;;;;;;8.20;5.07;;;;;;;18.65;49.78;99910.50;4281176;28;10000136;-77
2022/08/10 04:11:20;;;;;;;5.17;4.70;;;;;;;18.58;49.76;99907.59;4967026;28;20202;-76
2022/08/10 04:13:45;;;;;;;6.23;3.93;;;;;;;18.53;50.33;99917.81;4967194;28;20727;-76
2022/08/10 04:16:11;;;;;;;6.23;4.10;;;;;;;18.47;50.44;99914.84;4966906;28;20263;-77
2022/08/10 04:18:36;;;;;;;4.70;4.27;;;;;;;18.45;50.80;99915.00;4966625;28;20264;-78
2022/08/10 04:21:08;;;;;;;3.87;3.57;;;;;;;18.45;50.84;99914.19;4967327;28;20204;-77
2022/08/10 04:23:39;;;;;;;4.97;4.40;;;;;;;18.48;50.75;99916.56;4967496;28;20359;-80
2022/08/10 04:26:06;;;;;;;4.40;3.67;;;;;;;18.52;50.75;99917.94;4968361;28;20546;-77
2022/08/10 04:28:32;;;;;;;3.90;3.50;;;;;;;18.55;50.84;99913.19;4950246;28;20464;-78
2022/08/10 04:31:00;;;;;;;8.23;3.77;;;;;;;18.56;50.71;99914.03;4967717;28;20448;-77
2022/08/10 04:33:27;;;;;;;4.28;3.88;;;;;;;18.59;50.90;99924.38;4966744;28;21009;-76
2022/08/10 04:35:54;;;;;;;6.90;3.60;;;;;;;18.56;50.89;99925.50;4966980;28;20729;-76
2022/08/10 04:38:22;;;;;;;5.03;4.60;;;;;;;18.55;50.96;99925.63;4966373;28;20548;-77
2022/08/10 04:40:48;;;;;;;4.37;3.97;;;;;;;18.54;50.97;99929.28;4966599;28;20456;-76
2022/08/10 04:43:13;;;;;;;7.20;4.20;;;;;;;18.54;50.91;99926.63;4966599;28;20825;-77
2022/08/10 04:45:41;;;;;;;3.93;3.53;;;;;;;18.56;50.80;99924.66;4947121;28;20464;-76
2022/08/10 04:48:06;;;;;;;4.60;4.20;;;;;;;18.57;50.99;99932.50;4945290;28;20955;-76
2022/08/10 04:50:31;;;;;;;6.80;3.87;;;;;;;18.58;50.90;99925.38;4945118;28;20461;-76
2022/08/10 04:52:57;;;;;;;4.20;3.83;;;;;;;18.64;50.66;99932.78;4946595;28;20217;-76
2022/08/10 04:55:22;;;;;;;4.40;4.00;;;;;;;18.66;50.65;99936.16;4947515;28;20241;-76
2022/08/10 04:57:48;;;;;;;4.67;4.17;;;;;;;18.66;50.74;99930.81;4948711;28;20218;-76
2022/08/10 05:00:14;;;;;;;4.07;3.13;;;;;;;18.72;50.71;99938.22;4951313;28;20257;-76
2022/08/10 05:02:39;;;;;;;4.27;3.70;;;;;;;18.78;50.70;99945.69;4948987;28;20209;-78
2022/08/10 05:05:05;;;;;;;3.63;3.33;;;;;;;18.85;50.58;99945.09;4951228;28;20235;-77
2022/08/10 05:07:30;;;;;;;10.10;4.57;;;;;;;19.16;49.99;99938.59;4950720;28;20578;-76
2022/08/10 05:09:56;;;;;;;7.70;3.37;;;;;;;19.72;48.75;99938.69;4949682;28;20459;-76
2022/08/10 05:12:22;;;;;;;3.70;3.40;;;;;;;20.29;47.31;99953.47;4951761;28;20670;-77
2022/08/10 05:14:47;;;;;;;5.00;3.53;;;;;;;20.92;46.01;99936.50;4951564;28;20500;-76
2022/08/10 05:17:13;;;;;;;6.80;4.30;;;;;;;21.58;44.66;99939.59;4950651;28;20313;-76
2022/08/10 05:22:29;;;;;;;3.63;3.33;;;;;;;22.59;42.50;99931.47;4592999;26;20251;-81
2022/08/10 05:24:54;;;;;;;4.23;3.73;;;;;;;23.07;41.59;99943.19;4994134;28;20478;-81
2022/08/10 05:27:20;;;;;;;6.63;5.07;;;;;;;23.57;40.38;99938.50;4996860;28;20248;-81
2022/08/10 05:29:46;;;;;;;4.63;3.73;;;;;;;23.89;39.63;99936.72;4998660;28;20204;-81
2022/08/10 05:32:11;;;;;;;4.23;3.83;;;;;;;24.04;39.24;99938.50;5000293;28;20293;-81
2022/08/10 05:34:37;;;;;;;4.03;3.50;;;;;;;24.33;38.73;99931.59;5000075;28;20478;-81
2022/08/10 05:37:04;;;;;;;7.10;4.30;;;;;;;24.67;38.33;99935.72;4981592;28;20236;-81
2022/08/10 05:39:30;;;;;;;3.67;3.37;;;;;;;25.12;37.18;99928.59;4998298;28;20217;-81
2022/08/10 05:42:03;;;;;;;4.37;3.30;;;;;;;25.48;36.82;99931.38;4998683;28;21124;-81
2022/08/10 05:44:32;;;;;;;4.50;3.83;;;;;;;25.94;35.85;99933.03;4998761;28;20464;-81
2022/08/10 05:46:59;;;;;;;5.03;3.50;;;;;;;26.37;34.89;99931.19;4995820;28;20566;-82
2022/08/10 05:49:32;;;;;;;3.30;2.83;;;;;;;26.68;34.69;99936.28;4987656;28;20505;-81
2022/08/10 05:51:59;;;;;;;3.47;3.17;;;;;;;26.93;34.03;99925.09;4997458;28;20508;-82
2022/08/10 05:54:25;;;;;;;3.40;3.10;;;;;;;27.24;33.52;99931.94;5005521;28;20710;-83
2022/08/10 05:56:51;;;;;;;3.73;3.33;;;;;;;27.60;32.79;99931.75;5006483;28;20519;-84
2022/08/10 05:59:18;;;;;;;4.13;3.43;;;;;;;28.02;32.39;99927.97;5004125;28;20464;-83
2022/08/10 06:01:47;;;;;;;4.20;3.37;;;;;;;28.46;31.68;99931.19;4996860;28;20515;-82
2022/08/10 06:04:23;;;;;;;4.43;3.65;;;;;;;29.03;29.88;99928.88;4997572;28;20550;-83
2022/08/10 06:06:53;;;;;;;9.33;4.77;;;;;;;29.18;29.81;99921.41;4997911;28;20197;-81
2022/08/10 06:09:19;;;;;;;3.43;3.13;;;;;;;29.29;29.65;99922.63;4996793;28;20456;-80
2022/08/10 06:11:50;;;;;;;5.50;3.67;;;;;;;29.48;29.57;99924.44;4997868;28;20476;-80
2022/08/10 06:17:01;;;;;;;4.07;3.77;;;;;;;29.88;28.69;99915.34;4994669;28;20558;-81
2022/08/10 06:19:29;;;;;;;3.43;2.70;;;;;;;30.08;28.51;99920.66;4993982;28;20583;-81
2022/08/10 06:21:58;;;;;;;3.47;3.17;;;;;;;30.29;28.23;99923.06;4995029;28;21089;-80
2022/08/10 06:24:39;;;;;;;3.10;2.80;;;;;;;30.33;27.39;99918.88;4994669;28;20499;-81
2022/08/10 06:27:06;;;;;;;3.80;3.20;;;;;;;30.37;27.57;99919.25;4994917;28;20449;-81
2022/08/10 06:29:33;;;;;;;3.10;2.83;;;;;;;30.58;27.64;99918.06;4994922;28;20459;-80
2022/08/10 06:32:00;;;;;;;4.27;3.83;;;;;;;30.97;26.70;99907.91;4995411;28;20491;-80
2022/08/10 06:34:31;;;;;;;5.43;3.00;;;;;;;31.26;26.76;99900.94;4994984;28;20452;-80
2022/08/10 06:37:01;;;;;;;3.00;2.70;;;;;;;31.59;26.32;99905.19;4994477;28;20499;-81
2022/08/10 06:39:27;;;;;;;5.83;2.77;;;;;;;31.83;25.60;99912.38;4967973;28;20475;-80
2022/08/10 06:42:00;;;;;;;4.97;3.47;;;;;;;32.11;25.59;99903.66;4973332;28;20480;-81
2022/08/10 06:44:31;;;;;;;2.80;2.50;;;;;;;32.43;24.80;99906.09;4991087;28;20527;-81
2022/08/10 06:46:57;;;;;;;5.37;2.70;;;;;;;32.59;24.88;99902.75;4990381;28;20475;-80
2022/08/10 06:49:23;;;;;;;3.67;2.13;;;;;;;32.49;24.29;99896.22;4989910;28;20488;-80
2022/08/10 06:51:55;;;;;;;3.30;2.63;;;;;;;32.38;24.63;99892.41;4990577;28;20511;-80
2022/08/10 06:54:23;;;;;;;3.20;2.50;;;;;;;32.30;24.14;99896.28;4989563;28;20209;-80
2022/08/10 06:56:51;;;;;;;3.83;2.70;;;;;;;32.21;24.35;99892.22;4987853;28;20571;-80
2022/08/10 06:59:39;;;;;;;2.50;2.30;;;;;;;32.19;24.59;99888.94;4987808;28;20544;-80
2022/08/10 07:02:09;;;;;;;3.43;2.43;;;;;;;32.13;23.91;99896.09;4988233;28;20883;-80
2022/08/10 07:05:16;;;;;;;3.07;2.40;;;;;;;32.18;24.10;99892.69;4988638;28;20456;-81
2022/08/10 07:07:43;;;;;;;2.40;2.10;;;;;;;32.48;23.96;99889.13;4946352;28;20485;-80
2022/08/10 07:10:09;;;;;;;3.40;2.60;;;;;;;32.68;23.34;99881.47;4975960;28;20504;-80
2022/08/10 07:12:37;;;;;;;2.30;2.10;;;;;;;32.82;23.44;99882.88;4987147;28;20623;-80
2022/08/10 07:15:05;;;;;;;3.00;2.37;;;;;;;32.94;22.79;99884.75;4991511;28;20472;-81
2022/08/10 07:17:32;;;;;;;1.90;1.80;;;;;;;32.96;22.91;99883.44;4990180;28;20527;-81
2022/08/10 07:19:59;;;;;;;2.27;2.07;;;;;;;33.00;22.89;99884.66;4987513;28;20468;-81
2022/08/10 07:22:38;;;;;;;;;;;;;;;;;;;;;
2022/08/10 07:25:07;;;;;;;2.50;2.30;;;;;;;33.08;22.21;99885.34;4965318;28;21032;-91
2022/08/10 07:27:43;;;;;;;;;;;;;;;;;;;;;
2022/08/10 07:30:19;;;;;;;6.17;2.77;;;;;;;33.39;22.00;99871.34;4962998;28;21036;-91
2022/08/10 07:32:52;;;;;;;2.50;2.30;;;;;;;33.46;22.01;99885.66;4964869;28;20805;-93
2022/08/10 07:35:27;;;;;;;2.07;1.87;;;;;;;33.53;21.95;99884.66;4968312;28;20479;-90
2022/08/10 07:38:02;;;;;;;2.63;2.17;;;;;;;33.67;21.76;99881.44;4952140;28;20507;-90
2022/08/10 07:40:39;;;;;;;2.57;2.20;;;;;;;34.00;21.66;99877.16;4950014;28;20485;-91
2022/08/10 07:43:41;;;;;;;2.43;2.23;;;;;;;34.51;21.24;99880.78;4950265;28;20473;-93
2022/08/10 07:46:48;;;;;;;3.50;2.50;;;;;;;34.87;20.86;99870.44;4946424;28;20855;-93
2022/08/10 07:49:39;;;;;;;;;;;;;;;;;;;;;
2022/08/10 07:52:38;;;;;;;3.00;2.13;;;;;;;34.76;21.19;99871.38;4945908;28;20468;-91
2022/08/10 07:55:19;;;;;;;;;;;;;;;;;;;;;
2022/08/10 07:58:07;;;;;;;2.03;1.83;;;;;;;34.12;19.36;99868.94;4947907;28;20560;-91
2022/08/10 08:00:44;;;;;;;2.43;1.90;;;;;;;34.05;19.68;99869.13;4948627;28;20950;-91
2022/08/10 08:06:05;;;;;;;2.80;1.83;;;;;;;33.49;18.85;99879.72;4944158;28;20219;-90
2022/08/10 08:08:46;;;;;;;2.87;1.73;;;;;;;33.36;19.39;99866.38;4948964;28;20472;-94
2022/08/10 08:11:19;;;;;;;2.40;1.73;;;;;;;33.38;19.29;99869.69;4947690;28;20497;-95
2022/08/10 08:16:47;;;;;;;1.90;1.80;;;;;;;33.27;19.41;99865.94;4946575;28;20503;-92
2022/08/10 08:19:35;;;;;;;;;;;;;;;;;;;;;
2022/08/10 08:22:13;;;;;;;3.40;1.70;;;;;;;33.81;18.84;99864.81;4956582;28;20565;-89
2022/08/10 08:24:50;;;;;;;;;;;;;;;;;;;;;
2022/08/10 08:27:23;;;;;;;1.90;1.80;;;;;;;33.71;18.39;99866.28;4969421;28;20457;-91
2022/08/10 08:29:59;;;;;;;2.10;1.90;;;;;;;33.47;18.47;99861.97;4980335;28;20534;-89
2022/08/10 08:32:29;;;;;;;2.53;1.70;;;;;;;33.16;19.04;99855.91;4978611;28;20475;-91
2022/08/10 08:35:19;;;;;;;1.70;1.60;;;;;;;32.97;19.33;99871.53;4975180;28;20201;-90
2022/08/10 08:37:51;;;;;;;1.93;1.77;;;;;;;32.64;19.58;99863.94;4980064;28;21003;-91
2022/08/10 08:40:35;;;;;;;1.80;1.70;;;;;;;32.47;19.56;99858.38;4962602;28;20583;-91
2022/08/10 08:43:38;;;;;;;1.83;1.73;;;;;;;32.51;19.73;99858.72;4968434;28;20463;-92
2022/08/10 08:46:27;;;;;;;;;;;;;;;;;;;;;
2022/08/10 08:49:32;;;;;;;;;;;;;;;;;;;;;
2022/08/10 08:52:24;;;;;;;1.97;1.80;;;;;;;32.38;20.35;99844.28;4965445;28;20471;-90
2022/08/10 08:56:04;;;;;;;3.37;2.40;;;;;;;32.56;19.55;99858.84;4963166;28;20496;-89
2022/08/10 08:59:03;;;;;;;1.90;1.80;;;;;;;32.35;19.94;99865.66;4968933;28;20910;-91
2022/08/10 09:01:50;;;;;;;2.93;1.70;;;;;;;32.23;20.09;99849.34;4965437;28;20515;-89
2022/08/10 09:04:36;;;;;;;2.20;1.73;;;;;;;31.91;20.61;99851.47;4946899;28;20551;-91
2022/08/10 09:07:44;;;;;;;2.80;2.13;;;;;;;31.87;20.52;99844.84;4949694;28;20494;-91
2022/08/10 09:10:51;;;;;;;1.93;1.80;;;;;;;31.78;20.56;99838.91;4965128;28;20511;-92
2022/08/10 09:14:13;;;;;;;;;;;;;;;;;;;;;
2022/08/10 09:17:00;;;;;;;1.80;1.70;;;;;;;31.48;20.68;99842.44;4961867;28;20485;-90
2022/08/10 09:19:54;;;;;;;2.43;1.60;;;;;;;31.53;20.92;99837.16;4963028;28;20457;-92
2022/08/10 09:23:17;;;;;;;;;;;;;;;;;;;;;
2022/08/10 09:26:11;;;;;;;1.97;1.70;;;;;;;31.80;20.96;99828.63;4910811;29;20467;-90
2022/08/10 09:28:45;;;;;;;7.30;1.73;;;;;;;31.80;21.00;99831.34;4913523;29;20471;-91
2022/08/10 09:31:17;;;;;;;4.87;1.87;;;;;;;31.63;21.03;99833.06;4950091;28;20504;-90
2022/08/10 09:34:32;;;;;;;3.20;1.90;;;;;;;31.37;21.38;99818.78;4961092;28;20448;-93
2022/08/10 09:37:35;;;;;;;;;;;;;;;;;;;;;
2022/08/10 09:40:48;;;;;;;;;;;;;;;;;;;;;
2022/08/10 09:43:42;;;;;;;1.93;1.70;;;;;;;31.91;20.91;99816.16;4963200;28;20445;-91
2022/08/10 09:47:29;;;;;;;1.93;1.73;;;;;;;32.21;20.21;99809.84;4952093;28;20910;-93
2022/08/10 09:50:19;;;;;;;2.30;1.80;;;;;;;32.43;19.41;99808.22;4854743;29;20474;-92
2022/08/10 09:53:23;;;;;;;2.33;2.07;;;;;;;32.54;20.24;99803.88;4879689;29;20464;-92
2022/08/10 09:56:19;;;;;;;3.63;1.80;;;;;;;32.72;19.77;99795.56;4966334;28;20465;-93
2022/08/10 09:59:14;;;;;;;2.27;1.63;;;;;;;32.77;20.09;99800.31;4960526;28;21444;-91
2022/08/10 10:02:32;;;;;;;;;;;;;;;;;;;;;
2022/08/10 10:05:28;;;;;;;1.67;1.57;;;;;;;32.73;19.12;99796.41;4969842;28;20776;-92
2022/08/10 10:08:57;;;;;;;2.37;2.17;;;;;;;32.88;19.08;99794.03;4967687;28;20875;-93
2022/08/10 10:11:53;;;;;;;3.00;1.70;;;;;;;33.09;18.80;99800.75;4966490;28;21045;-91
2022/08/10 10:15:18;;;;;;;;;;;;;;;;;;;;;
2022/08/10 10:18:03;;;;;;;1.73;1.40;;;;;;;33.02;18.78;99791.88;4969159;28;20693;-91
2022/08/10 10:20:40;;;;;;;1.73;1.50;;;;;;;32.90;18.83;99801.97;4966382;28;20585;-91
2022/08/10 10:23:15;;;;;;;1.80;1.40;;;;;;;32.85;18.73;99791.78;4965669;28;20497;-92
2022/08/10 10:26:09;;;;;;;4.03;1.90;;;;;;;33.00;18.64;99799.44;4966487;28;21193;-94
2022/08/10 10:28:45;;;;;;;2.17;1.70;;;;;;;33.12;18.50;99792.09;4964373;28;20835;-91
2022/08/10 10:31:39;;;;;;;2.30;1.50;;;;;;;33.04;18.94;99796.03;4969989;28;20457;-90
2022/08/10 10:35:01;;;;;;;2.33;2.07;;;;;;;33.20;18.43;99797.16;4969360;28;20457;-94
2022/08/10 10:37:52;;;;;;;2.10;1.93;;;;;;;33.15;18.27;99799.78;4969885;28;20473;-91
2022/08/10 10:41:03;;;;;;;2.50;1.63;;;;;;;32.77;19.08;99790.25;4965228;28;20461;-94
2022/08/10 10:43:47;;;;;;;5.23;1.80;;;;;;;32.74;18.96;99798.91;4968746;28;20532;-92
2022/08/10 10:46:45;;;;;;;1.43;1.33;;;;;;;32.77;18.70;99790.25;4966042;28;20476;-91
2022/08/10 10:49:20;;;;;;;1.50;1.40;;;;;;;32.53;17.94;99784.00;4967449;28;20962;-92
2022/08/10 10:52:03;;;;;;;2.60;1.97;;;;;;;32.45;18.28;99783.50;4963406;28;20463;-92
2022/08/10 10:54:42;;;;;;;3.10;1.80;;;;;;;32.43;18.47;99783.75;4968858;28;20472;-91
2022/08/10 10:57:25;;;;;;;1.70;1.60;;;;;;;32.60;18.34;99776.56;4968416;28;20516;-90
2022/08/10 11:00:01;;;;;;;2.30;1.47;;;;;;;32.73;18.08;99766.47;4967154;28;21394;-90
2022/08/10 11:02:56;;;;;;;1.80;1.70;;;;;;;32.87;18.33;99767.06;4971415;28;21628;-91
2022/08/10 11:05:49;;;;;;;2.00;1.90;;;;;;;33.10;17.78;99764.28;4969604;28;20468;-92
2022/08/10 11:08:31;;;;;;;1.70;1.53;;;;;;;33.13;18.03;99757.53;4972139;28;20535;-93
2022/08/10 11:11:36;;;;;;;;;;;;;;;;;;;;;
2022/08/10 11:14:28;;;;;;;4.10;2.20;;;;;;;32.87;18.24;99757.00;4969949;28;20492;-94
2022/08/10 11:17:04;;;;;;;1.83;1.73;;;;;;;32.84;18.25;99761.03;4969283;28;20640;-91
2022/08/10 11:19:55;;;;;;;1.40;1.30;;;;;;;32.96;18.33;99763.72;4967291;28;20527;-91
2022/08/10 11:22:29;;;;;;;1.87;1.77;;;;;;;32.94;18.09;99767.75;4967839;28;21215;-91
2022/08/10 11:25:19;;;;;;;2.43;1.67;;;;;;;32.95;18.10;99761.25;4951591;28;21001;-93
2022/08/10 11:27:56;;;;;;;1.67;1.57;;;;;;;33.01;18.07;99755.69;4968763;28;20454;-90
2022/08/10 11:30:37;;;;;;;1.70;1.60;;;;;;;32.95;18.10;99755.81;4968947;28;20480;-90
2022/08/10 11:33:11;;;;;;;2.03;1.70;;;;;;;32.81;18.19;99760.66;4968663;28;20467;-91
2022/08/10 11:36:06;;;;;;;1.97;1.60;;;;;;;32.92;18.38;99761.72;4966313;28;20460;-90
2022/08/10 11:38:59;;;;;;;3.43;1.60;;;;;;;32.96;17.85;99757.44;4966303;28;20453;-89
2022/08/10 11:41:46;;;;;;;2.47;1.80;;;;;;;32.77;17.98;99763.03;4967360;28;20480;-91
2022/08/10 11:44:43;;;;;;;;;;;;;;;;;;;;;
2022/08/10 11:47:24;;;;;;;;;;;;;;;;;;;;;
2022/08/10 11:50:16;;;;;;;2.90;2.00;;;;;;;32.47;18.50;99752.34;4966337;28;20472;-91
2022/08/10 11:52:57;;;;;;;1.90;1.80;;;;;;;32.53;18.76;99754.09;4948439;28;20576;-90
2022/08/10 11:55:28;;;;;;;2.03;1.47;;;;;;;32.50;18.77;99746.41;4968257;28;20469;-90
2022/08/10 11:58:01;;;;;;;1.73;1.37;;;;;;;32.60;18.13;99749.38;4970934;28;21355;-93
2022/08/10 12:01:02;;;;;;;6.50;1.60;;;;;;;32.55;18.26;99753.88;4967638;28;20594;-91
2022/08/10 12:03:38;;;;;;;1.70;1.60;;;;;;;32.39;18.46;99737.19;4967730;28;20487;-92
2022/08/10 12:06:13;;;;;;;5.17;1.50;;;;;;;32.48;18.31;99739.56;4971692;28;20524;-90
2022/08/10 12:09:03;;;;;;;1.80;1.70;;;;;;;32.58;17.94;99729.72;4976330;28;20453;-91
2022/08/10 12:11:32;;;;;;;1.83;1.30;;;;;;;32.69;17.93;99727.25;4971479;28;20485;-91
2022/08/10 12:14:14;;;;;;;3.30;1.53;;;;;;;32.64;17.44;99736.09;4972830;28;20839;-92
2022/08/10 12:16:46;;;;;;;3.20;1.70;;;;;;;32.67;17.73;99734.81;4975350;28;20858;-91
2022/08/10 12:19:29;;;;;;;2.20;1.67;;;;;;;32.64;17.87;99732.56;4975939;28;20453;-91
2022/08/10 12:22:03;;;;;;;1.70;1.60;;;;;;;32.64;17.78;99727.13;4984957;28;20500;-91
2022/08/10 12:25:08;;;;;;;1.90;1.80;;;;;;;32.52;17.53;99740.75;4973760;28;20461;-91
2022/08/10 12:27:47;;;;;;;2.00;1.57;;;;;;;32.34;18.15;99739.78;4910694;29;20475;-91
2022/08/10 12:30:37;;;;;;;1.77;1.67;;;;;;;32.50;17.90;99727.38;4966654;28;20483;-92
2022/08/10 12:33:38;;;;;;;1.40;1.30;;;;;;;32.58;17.65;99716.13;4976973;28;20461;-90
2022/08/10 12:36:43;;;;;;;1.97;1.60;;;;;;;32.68;17.51;99718.25;4988030;28;20547;-94
2022/08/10 12:39:34;;;;;;;1.90;1.70;;;;;;;32.69;17.49;99719.91;4982185;28;20503;-93
2022/08/10 12:42:09;;;;;;;2.33;1.60;;;;;;;32.73;17.55;99714.78;4966023;28;20819;-90
2022/08/10 12:44:43;;;;;;;2.40;1.37;;;;;;;32.87;16.99;99720.81;4988242;28;20467;-92
2022/08/10 12:47:29;;;;;;;2.00;1.40;;;;;;;32.89;16.78;99722.19;4985501;28;20487;-90
2022/08/10 12:50:19;;;;;;;1.67;1.57;;;;;;;32.95;16.89;99715.00;4967144;28;20551;-88
2022/08/10 12:52:53;;;;;;;1.53;1.10;;;;;;;33.00;16.87;99710.50;4967852;28;20487;-90